createdAt,value
2022-11-17T00:01:21.404Z,97467.09
2022-11-17T00:03:50.846Z,97448.09
2022-11-17T00:06:20.510Z,97466.28
2022-11-17T00:08:49.083Z,97453.81
2022-11-17T00:11:15.940Z,97444.47
2022-11-17T00:14:00.731Z,97449.59
2022-11-17T00:16:27.273Z,97471.84
2022-11-17T00:19:22.995Z,97488.47
2022-11-17T00:21:49.469Z,97474.72
2022-11-17T00:24:18.232Z,97430.94
2022-11-17T00:27:02.817Z,97411.59
2022-11-17T00:29:30.317Z,97393.13
2022-11-17T00:32:17.124Z,97379.03
2022-11-17T00:34:43.779Z,97344.50
2022-11-17T00:37:11.339Z,97320.91
2022-11-17T00:39:37.795Z,97324.03
2022-11-17T00:42:04.392Z,97317.97
2022-11-17T00:44:32.977Z,97295.91
2022-11-17T00:46:59.417Z,97260.31
2022-11-17T00:49:26.035Z,97271.00
2022-11-17T00:51:52.887Z,97270.19
2022-11-17T00:54:19.518Z,97272.22
2022-11-17T00:56:46.884Z,97238.84
2022-11-17T00:59:15.693Z,97224.66
2022-11-17T01:01:42.921Z,97236.78
2022-11-17T01:04:12.002Z,97236.56
2022-11-17T01:06:42.475Z,97214.81
2022-11-17T01:09:17.430Z,97190.59
2022-11-17T01:11:46.278Z,97169.16
2022-11-17T01:14:14.177Z,97179.22
2022-11-17T01:16:40.659Z,97157.00
2022-11-17T01:19:07.160Z,97144.88
2022-11-17T01:21:33.610Z,97128.19
2022-11-17T01:24:01.137Z,97138.41
2022-11-17T01:26:29.278Z,97138.09
2022-11-17T01:28:55.814Z,97138.06
2022-11-17T01:31:27.104Z,97114.13
2022-11-17T01:33:53.703Z,97093.97
2022-11-17T01:36:26.389Z,97096.19
2022-11-17T01:38:54.483Z,97076.00
2022-11-17T01:41:20.906Z,97062.91
2022-11-17T01:43:53.259Z,97037.72
2022-11-17T01:46:19.714Z,97027.97
2022-11-17T01:48:47.394Z,97012.66
2022-11-17T01:51:14.611Z,96991.72
2022-11-17T01:53:42.843Z,96969.19
2022-11-17T01:56:12.064Z,96957.69
2022-11-17T01:58:43.641Z,96960.41
2022-11-17T02:01:10.064Z,96954.88
2022-11-17T02:03:36.976Z,96931.09
2022-11-17T02:06:07.266Z,96909.97
2022-11-17T02:08:36.070Z,96899.75
2022-11-17T02:11:03.942Z,96868.88
2022-11-17T02:13:30.399Z,96844.63
2022-11-17T02:15:56.860Z,96859.47
2022-11-17T02:18:23.321Z,96848.28
2022-11-17T02:21:01.672Z,96831.72
2022-11-17T02:23:28.136Z,96803.22
2022-11-17T02:26:21.985Z,96815.66
2022-11-17T02:29:07.013Z,96802.47
2022-11-17T02:32:08.871Z,96797.91
2022-11-17T02:35:09.092Z,96781.84
2022-11-17T02:37:44.764Z,96751.72
2022-11-17T02:40:17.809Z,96749.22
2022-11-17T02:43:05.926Z,96751.94
2022-11-17T02:45:52.619Z,96738.66
2022-11-17T02:48:23.147Z,96729.09
2022-11-17T02:50:50.573Z,96714.41
2022-11-17T02:53:18.641Z,96705.09
2022-11-17T02:55:52.398Z,96702.78
2022-11-17T02:58:19.305Z,96702.97
2022-11-17T03:01:09.057Z,96706.91
2022-11-17T03:03:50.478Z,96686.44
2022-11-17T03:06:16.884Z,96684.72
2022-11-17T03:08:46.359Z,96667.47
2022-11-17T03:11:13.393Z,96677.63
2022-11-17T03:13:45.755Z,96681.91
2022-11-17T03:16:27.240Z,96679.84
2022-11-17T03:19:12.494Z,96668.53
2022-11-17T03:21:46.862Z,96642.78
2022-11-17T03:24:33.739Z,96644.72
2022-11-17T03:27:03.435Z,96652.63
2022-11-17T03:29:32.404Z,96652.63
2022-11-17T03:32:00.632Z,96637.16
2022-11-17T03:34:28.491Z,96629.22
2022-11-17T03:36:58.563Z,96619.78
2022-11-17T03:39:38.062Z,96623.63
2022-11-17T03:42:16.871Z,96617.69
2022-11-17T03:44:45.954Z,96612.44
2022-11-17T03:47:13.358Z,96591.38
2022-11-17T03:49:56.647Z,96604.53
2022-11-17T03:52:25.235Z,96621.28
2022-11-17T03:54:52.548Z,96623.03
2022-11-17T03:57:20.730Z,96621.59
2022-11-17T04:00:06.944Z,96613.81
2022-11-17T04:02:33.499Z,96624.34
2022-11-17T04:05:05.880Z,96622.03
2022-11-17T04:07:37.294Z,96622.03
2022-11-17T04:10:05.109Z,96607.88
2022-11-17T04:12:49.984Z,96622.28
2022-11-17T04:15:34.983Z,96620.91
2022-11-17T04:18:01.420Z,96611.66
2022-11-17T04:20:35.853Z,96621.09
2022-11-17T04:23:09.598Z,96605.19
2022-11-17T04:25:55.441Z,96600.31
2022-11-17T04:28:38.611Z,96619.44
2022-11-17T04:31:16.161Z,96624.50
2022-11-17T04:34:03.309Z,96616.16
2022-11-17T04:36:35.054Z,96614.47
2022-11-17T04:39:01.530Z,96617.38
2022-11-17T04:41:49.494Z,96625.59
2022-11-17T04:44:16.951Z,96623.50
2022-11-17T04:46:49.330Z,96621.56
2022-11-17T04:49:16.837Z,96637.22
2022-11-17T04:51:43.749Z,96656.00
2022-11-17T04:54:11.443Z,96658.38
2022-11-17T04:56:37.936Z,96649.97
2022-11-17T04:59:04.762Z,96657.22
2022-11-17T05:01:31.215Z,96663.38
2022-11-17T05:03:58.858Z,96672.84
2022-11-17T05:06:27.080Z,96670.13
2022-11-17T05:08:57.272Z,96659.66
2022-11-17T05:11:42.774Z,96674.50
2022-11-17T05:14:09.543Z,96690.63
2022-11-17T05:16:54.761Z,96684.63
2022-11-17T05:19:22.983Z,96686.91
2022-11-17T05:21:49.410Z,96686.75
2022-11-17T05:24:16.096Z,96687.88
2022-11-17T05:26:43.307Z,96695.03
2022-11-17T05:29:12.825Z,96690.75
2022-11-17T05:31:41.401Z,96689.88
2022-11-17T05:34:09.112Z,96701.25
2022-11-17T05:36:36.017Z,96716.13
2022-11-17T05:39:02.644Z,96718.97
2022-11-17T05:41:29.269Z,96727.00
2022-11-17T05:43:56.102Z,96716.31
2022-11-17T05:46:22.915Z,96709.19
2022-11-17T05:48:55.094Z,96719.22
2022-11-17T05:51:22.673Z,96712.97
2022-11-17T05:53:49.643Z,96723.53
2022-11-17T05:56:16.011Z,96704.72
2022-11-17T05:58:44.805Z,96707.69
2022-11-17T06:01:13.177Z,96717.66
2022-11-17T06:03:45.419Z,96720.53
2022-11-17T06:06:11.871Z,96736.44
2022-11-17T06:08:38.443Z,96731.66
2022-11-17T06:11:04.935Z,96740.00
2022-11-17T06:13:33.547Z,96738.44
2022-11-17T06:16:02.089Z,96743.66
2022-11-17T06:18:30.603Z,96756.44
2022-11-17T06:20:57.111Z,96753.28
2022-11-17T06:23:26.969Z,96758.00
2022-11-17T06:25:53.462Z,96749.28
2022-11-17T06:28:21.898Z,96751.47
2022-11-17T06:30:49.766Z,96747.88
2022-11-17T06:33:17.583Z,96759.84
2022-11-17T06:35:45.110Z,96768.50
2022-11-17T06:38:11.878Z,96761.09
2022-11-17T06:40:38.291Z,96769.75
2022-11-17T06:43:08.567Z,96785.72
2022-11-17T06:45:48.539Z,96792.00
2022-11-17T06:48:18.248Z,96783.94
2022-11-17T06:50:44.654Z,96799.56
2022-11-17T06:53:12.373Z,96797.06
2022-11-17T06:55:38.840Z,96810.63
2022-11-17T06:58:09.160Z,96806.22
2022-11-17T07:00:36.523Z,96804.13
2022-11-17T07:03:04.313Z,96826.06
2022-11-17T07:05:31.127Z,96821.97
2022-11-17T07:07:58.982Z,96837.09
2022-11-17T07:10:28.100Z,96833.50
2022-11-17T07:12:54.642Z,96825.75
2022-11-17T07:15:21.266Z,96815.66
2022-11-17T07:17:47.822Z,96789.50
2022-11-17T07:20:14.918Z,96781.91
2022-11-17T07:22:46.888Z,96794.06
2022-11-17T07:25:15.267Z,96792.97
2022-11-17T07:27:44.852Z,96799.13
2022-11-17T07:30:12.375Z,96796.25
2022-11-17T07:32:38.941Z,96800.03
2022-11-17T07:35:06.001Z,96790.72
2022-11-17T07:37:33.728Z,96786.56
2022-11-17T07:40:00.830Z,96791.91
2022-11-17T07:42:27.292Z,96793.03
2022-11-17T07:44:56.149Z,96797.94
2022-11-17T07:47:22.608Z,96803.94
2022-11-17T07:49:49.042Z,96810.88
2022-11-17T07:52:15.509Z,96813.88
2022-11-17T07:54:41.957Z,96819.38
2022-11-17T07:57:08.446Z,96810.81
2022-11-17T07:59:34.891Z,96813.16
2022-11-17T08:02:01.369Z,96814.72
2022-11-17T08:04:27.800Z,96829.56
2022-11-17T08:06:54.318Z,96828.75
2022-11-17T08:09:20.769Z,96826.22
2022-11-17T08:11:49.138Z,96825.13
2022-11-17T08:14:17.376Z,96833.81
2022-11-17T08:16:43.814Z,96834.75
2022-11-17T08:19:14.262Z,96834.06
2022-11-17T08:21:41.422Z,96846.84
2022-11-17T08:24:07.924Z,96844.28
2022-11-17T08:26:34.351Z,96837.81
2022-11-17T08:29:02.042Z,96837.28
2022-11-17T08:31:29.251Z,96824.97
2022-11-17T08:33:55.734Z,96839.16
2022-11-17T08:36:22.381Z,96842.16
2022-11-17T08:38:48.819Z,96855.09
2022-11-17T08:41:15.366Z,96858.06
2022-11-17T08:43:43.740Z,96868.31
2022-11-17T08:46:15.449Z,96864.22
2022-11-17T08:48:43.842Z,96867.66
2022-11-17T08:51:12.031Z,96877.78
2022-11-17T08:53:38.468Z,96896.41
2022-11-17T08:56:08.868Z,96885.50
2022-11-17T08:58:42.586Z,96890.22
2022-11-17T09:01:10.233Z,96897.59
2022-11-17T09:03:36.798Z,96909.00
2022-11-17T09:06:04.284Z,96911.84
2022-11-17T09:08:45.019Z,96908.84
2022-11-17T09:11:19.521Z,96914.06
2022-11-17T09:13:47.026Z,96930.78
2022-11-17T09:16:13.831Z,96919.56
2022-11-17T09:18:41.168Z,96930.13
2022-11-17T09:21:09.033Z,96929.50
2022-11-17T09:23:35.892Z,96928.41
2022-11-17T09:26:06.706Z,96934.22
2022-11-17T09:28:34.465Z,96926.19
2022-11-17T09:31:05.793Z,96925.50
2022-11-17T09:33:32.220Z,96924.28
2022-11-17T09:36:00.833Z,96927.28
2022-11-17T09:38:27.240Z,96920.81
2022-11-17T09:40:55.988Z,96923.50
2022-11-17T09:43:30.172Z,96927.59
2022-11-17T09:46:03.151Z,96927.47
2022-11-17T09:48:41.446Z,96923.66
2022-11-17T09:51:10.569Z,96924.13
2022-11-17T09:53:54.149Z,96926.34
2022-11-17T09:56:21.149Z,96929.97
2022-11-17T09:58:53.452Z,96919.84
2022-11-17T10:01:21.904Z,96920.78
2022-11-17T10:03:50.016Z,96915.25
2022-11-17T10:06:19.827Z,96914.16
2022-11-17T10:08:52.288Z,96915.56
2022-11-17T10:11:34.070Z,96910.03
2022-11-17T10:14:15.940Z,96909.16
2022-11-17T10:16:51.394Z,96888.94
2022-11-17T10:19:22.727Z,96917.47
2022-11-17T10:21:54.203Z,96923.41
2022-11-17T10:24:32.956Z,96897.41
2022-11-17T10:26:59.821Z,96865.16
2022-11-17T10:29:27.108Z,96867.72
2022-11-17T10:31:53.556Z,96856.28
2022-11-17T10:34:41.011Z,96839.31
2022-11-17T10:37:28.473Z,96817.25
2022-11-17T10:40:13.901Z,96793.88
2022-11-17T10:42:43.052Z,96755.84
2022-11-17T10:45:16.093Z,96745.63
2022-11-17T10:47:42.643Z,96734.75
2022-11-17T10:50:12.009Z,96711.09
2022-11-17T10:52:38.468Z,96707.63
2022-11-17T10:55:23.663Z,96678.16
2022-11-17T10:57:52.260Z,96698.16
2022-11-17T11:00:24.656Z,96688.38
2022-11-17T11:03:02.344Z,96688.09
2022-11-17T11:05:28.768Z,96677.00
2022-11-17T11:08:08.617Z,96671.66
2022-11-17T11:10:35.411Z,96674.38
2022-11-17T11:13:20.816Z,96686.25
2022-11-17T11:15:48.196Z,96672.41
2022-11-17T11:18:18.541Z,96665.75
2022-11-17T11:21:04.807Z,96637.69
2022-11-17T11:23:34.265Z,96639.03
2022-11-17T11:26:17.156Z,96645.88
2022-11-17T11:28:48.116Z,96642.22
2022-11-17T11:31:32.324Z,96643.66
2022-11-17T11:34:28.323Z,96637.19
2022-11-17T11:37:01.882Z,96633.44
2022-11-17T11:39:37.267Z,96633.34
2022-11-17T11:42:19.092Z,96641.72
2022-11-17T11:44:55.970Z,96639.03
2022-11-17T11:47:34.360Z,96636.81
2022-11-17T11:50:10.119Z,96628.34
2022-11-17T11:52:39.185Z,96646.38
2022-11-17T11:55:14.588Z,96642.59
2022-11-17T11:57:43.100Z,96625.22
2022-11-17T12:00:16.739Z,96631.09
2022-11-17T12:03:03.526Z,96620.13
2022-11-17T12:05:52.664Z,96621.03
2022-11-17T12:08:19.095Z,96641.94
2022-11-17T12:11:00.648Z,96638.16
2022-11-17T12:13:30.218Z,96647.19
2022-11-17T12:16:15.608Z,96645.34
2022-11-17T12:18:42.168Z,96652.28
2022-11-17T12:21:12.388Z,96662.56
2022-11-17T12:23:54.159Z,96673.59
2022-11-17T12:26:22.230Z,96671.75
2022-11-17T12:28:49.776Z,96668.16
2022-11-17T12:31:25.965Z,96676.19
2022-11-17T12:33:52.372Z,96690.31
2022-11-17T12:36:30.105Z,96694.91
2022-11-17T12:38:58.119Z,96683.06
2022-11-17T12:41:43.199Z,96686.03
2022-11-17T12:44:30.657Z,96676.47
2022-11-17T12:47:00.988Z,96703.53
2022-11-17T12:49:32.104Z,96702.75
2022-11-17T12:52:03.925Z,96719.66
2022-11-17T12:54:50.644Z,96718.19
2022-11-17T12:57:20.244Z,96706.41
2022-11-17T12:59:57.390Z,96726.69
2022-11-17T13:02:26.890Z,96732.72
2022-11-17T13:04:56.676Z,96729.56
2022-11-17T13:07:25.703Z,96722.91
2022-11-17T13:09:53.372Z,96715.84
2022-11-17T13:12:23.861Z,96732.50
2022-11-17T13:15:03.976Z,96753.69
2022-11-17T13:17:41.949Z,96757.00
2022-11-17T13:20:17.538Z,96745.78
2022-11-17T13:22:58.349Z,96748.53
2022-11-17T13:25:24.817Z,96766.44
2022-11-17T13:27:57.095Z,96766.44
2022-11-17T13:30:29.081Z,96774.03
2022-11-17T13:32:56.398Z,96765.13
2022-11-17T13:35:27.316Z,96769.84
2022-11-17T13:38:14.461Z,96780.75
2022-11-17T13:40:41.644Z,96787.59
2022-11-17T13:43:11.703Z,96786.69
2022-11-17T13:45:38.268Z,96782.53
2022-11-17T13:48:04.736Z,96774.03
2022-11-17T13:50:31.135Z,96787.16
2022-11-17T13:53:00.589Z,96790.47
2022-11-17T13:55:27.640Z,96764.09
2022-11-17T13:57:59.845Z,96752.31
2022-11-17T14:00:29.122Z,96766.44
2022-11-17T14:02:56.956Z,96782.25
2022-11-17T14:05:27.569Z,96788.72
2022-11-17T14:07:56.919Z,96793.91
2022-11-17T14:10:31.753Z,96773.44
2022-11-17T14:13:03.039Z,96791.03
2022-11-17T14:15:31.736Z,96790.50
2022-11-17T14:18:02.860Z,96787.13
2022-11-17T14:20:33.507Z,96810.34
2022-11-17T14:23:00.113Z,96851.59
2022-11-17T14:25:26.635Z,96848.53
2022-11-17T14:27:53.445Z,96868.91
2022-11-17T14:30:20.731Z,96885.69
2022-11-17T14:32:47.270Z,96885.19
2022-11-17T14:37:43.316Z,96891.53
2022-11-17T14:40:13.833Z,96868.66
2022-11-17T14:42:41.518Z,96856.03
2022-11-17T14:45:17.189Z,96869.97
2022-11-17T14:47:43.908Z,96855.31
2022-11-17T14:50:13.173Z,96829.84
2022-11-17T14:52:41.179Z,96831.31
2022-11-17T14:55:08.148Z,96820.66
2022-11-17T14:57:34.616Z,96802.63
2022-11-17T15:00:01.110Z,96790.75
2022-11-17T15:02:27.539Z,96794.78
2022-11-17T15:04:54.645Z,96787.25
2022-11-17T15:07:21.460Z,96762.88
2022-11-17T15:09:48.425Z,96758.69
2022-11-17T15:12:15.269Z,96746.59
2022-11-17T15:14:41.755Z,96725.09
2022-11-17T15:17:13.833Z,96705.81
2022-11-17T15:19:41.472Z,96718.69
2022-11-17T15:22:07.982Z,96716.84
2022-11-17T15:24:34.452Z,96697.53
2022-11-17T15:27:00.992Z,96698.81
2022-11-17T15:29:28.464Z,96684.00
2022-11-17T15:31:55.664Z,96669.66
2022-11-17T15:34:22.067Z,96666.28
2022-11-17T15:36:48.949Z,96667.44
2022-11-17T15:39:15.729Z,96677.78
2022-11-17T15:41:42.478Z,96671.56
2022-11-17T15:44:09.471Z,96663.16
2022-11-17T15:46:36.072Z,96673.13
2022-11-17T15:49:02.587Z,96677.78
2022-11-17T15:51:29.073Z,96669.16
2022-11-17T15:53:59.490Z,96674.69
2022-11-17T15:56:29.895Z,96680.88
2022-11-17T15:58:57.701Z,96684.72
2022-11-17T16:01:24.888Z,96668.69
2022-11-17T16:03:52.332Z,96675.53
2022-11-17T16:06:19.159Z,96696.72
2022-11-17T16:08:45.660Z,96689.13
2022-11-17T16:11:12.186Z,96679.59
2022-11-17T16:13:38.893Z,96696.06
2022-11-17T16:16:05.889Z,96700.03
2022-11-17T16:18:32.805Z,96702.22
2022-11-17T16:21:06.549Z,96690.97
2022-11-17T16:24:00.876Z,96715.31
2022-11-17T16:26:28.586Z,96729.69
2022-11-17T16:29:00.967Z,96726.00
2022-11-17T16:31:28.630Z,96742.44
2022-11-17T16:34:01.891Z,96763.56
2022-11-17T16:36:35.953Z,96762.81
2022-11-17T16:39:03.702Z,96758.66
2022-11-17T16:41:34.704Z,96770.78
2022-11-17T16:44:01.918Z,96786.75
2022-11-17T16:46:30.279Z,96785.34
2022-11-17T16:49:00.385Z,96776.94
2022-11-17T16:51:26.892Z,96786.25
2022-11-17T16:53:57.702Z,96800.16
2022-11-17T16:56:24.216Z,96798.59
2022-11-17T16:58:50.833Z,96783.06
2022-11-17T17:01:19.023Z,96793.50
2022-11-17T17:03:45.723Z,96795.25
2022-11-17T17:06:14.053Z,96787.09
2022-11-17T17:08:40.901Z,96783.44
2022-11-17T17:11:08.826Z,96778.72
2022-11-17T17:13:36.056Z,96786.00
2022-11-17T17:16:03.819Z,96785.53
2022-11-17T17:18:31.004Z,96781.72
2022-11-17T17:20:57.870Z,96792.94
2022-11-17T17:23:25.101Z,96814.72
2022-11-17T17:26:01.142Z,96815.50
2022-11-17T17:28:29.224Z,96821.03
2022-11-17T17:30:56.334Z,96810.94
2022-11-17T17:33:22.817Z,96801.13
2022-11-17T17:35:49.340Z,96804.63
2022-11-17T17:38:15.740Z,96810.00
2022-11-17T17:40:42.237Z,96795.13
2022-11-17T17:43:08.765Z,96801.78
2022-11-17T17:45:37.846Z,96818.66
2022-11-17T17:48:05.303Z,96821.97
2022-11-17T17:50:31.845Z,96825.09
2022-11-17T17:52:58.312Z,96816.28
2022-11-17T17:55:24.816Z,96823.69
2022-11-17T17:57:51.364Z,96819.75
2022-11-17T18:00:18.091Z,96823.69
2022-11-17T18:02:44.596Z,96804.16
2022-11-17T18:05:11.084Z,96798.66
2022-11-17T18:07:37.553Z,96805.41
2022-11-17T18:10:04.178Z,96808.75
2022-11-17T18:12:30.584Z,96807.81
2022-11-17T18:14:57.370Z,96805.91
2022-11-17T18:17:23.792Z,96808.75
2022-11-17T18:19:50.347Z,96811.13
2022-11-17T18:22:16.820Z,96809.41
2022-11-17T18:24:43.304Z,96803.38
2022-11-17T18:27:09.824Z,96816.00
2022-11-17T18:29:37.017Z,96821.06
2022-11-17T18:32:03.618Z,96810.66
2022-11-17T18:34:30.018Z,96815.06
2022-11-17T18:36:56.563Z,96820.41
2022-11-17T18:39:23.481Z,96818.38
2022-11-17T18:41:49.917Z,96811.59
2022-11-17T18:44:18.487Z,96831.47
2022-11-17T18:46:45.456Z,96835.25
2022-11-17T18:49:14.547Z,96826.72
2022-11-17T18:51:41.272Z,96821.06
2022-11-17T18:54:08.091Z,96837.25
2022-11-17T18:56:35.544Z,96831.91
2022-11-17T18:59:02.406Z,96832.69
2022-11-17T19:01:29.588Z,96835.53
2022-11-17T19:03:57.305Z,96840.59
2022-11-17T19:06:25.092Z,96837.75
2022-11-17T19:08:52.165Z,96845.28
2022-11-17T19:11:19.480Z,96864.84
2022-11-17T19:13:46.408Z,96873.97
2022-11-17T19:16:31.961Z,96880.41
2022-11-17T19:18:59.380Z,96891.25
2022-11-17T19:21:28.353Z,96904.94
2022-11-17T19:23:58.932Z,96914.84
2022-11-17T19:26:29.033Z,96916.91
2022-11-17T19:29:00.507Z,96920.72
2022-11-17T19:31:28.272Z,96924.16
2022-11-17T19:33:55.271Z,96929.81
2022-11-17T19:36:22.641Z,96959.41
2022-11-17T19:38:50.069Z,96989.41
2022-11-17T19:41:24.331Z,96981.34
2022-11-17T19:43:54.713Z,96974.78
2022-11-17T19:46:21.704Z,96977.03
2022-11-17T19:48:48.244Z,97007.97
2022-11-17T19:51:14.691Z,97037.47
2022-11-17T19:53:43.220Z,97046.59
2022-11-17T19:56:09.680Z,97060.56
2022-11-17T19:58:36.236Z,97075.50
2022-11-17T20:01:13.998Z,97076.22
2022-11-17T20:03:41.174Z,97095.50
2022-11-17T20:06:11.183Z,97131.41
2022-11-17T20:08:37.624Z,97133.59
2022-11-17T20:11:09.152Z,97138.47
2022-11-17T20:13:36.233Z,97141.16
2022-11-17T20:16:06.300Z,97144.91
2022-11-17T20:18:36.923Z,97168.16
2022-11-17T20:21:06.179Z,97176.00
2022-11-17T20:23:36.100Z,97192.38
2022-11-17T20:26:06.166Z,97205.75
2022-11-17T20:28:36.209Z,97221.63
2022-11-17T20:31:10.132Z,97238.84
2022-11-17T20:33:40.380Z,97262.22
2022-11-17T20:36:07.852Z,97277.59
2022-11-17T20:38:35.953Z,97280.72
2022-11-17T20:41:03.251Z,97281.22
2022-11-17T20:43:29.818Z,97282.47
2022-11-17T20:45:56.961Z,97310.72
2022-11-17T20:48:24.217Z,97318.34
2022-11-17T20:51:04.776Z,97318.47
2022-11-17T20:53:33.785Z,97332.50
2022-11-17T20:56:01.499Z,97324.50
2022-11-17T20:58:28.423Z,97334.00
2022-11-17T21:00:55.349Z,97329.63
2022-11-17T21:03:22.238Z,97343.19
2022-11-17T21:05:58.440Z,97352.19
2022-11-17T21:08:26.432Z,97348.41
2022-11-17T21:10:56.661Z,97327.75
2022-11-17T21:13:23.797Z,97305.88
2022-11-17T21:16:05.723Z,97283.72
2022-11-17T21:18:32.255Z,97294.59
2022-11-17T21:21:03.787Z,97292.03
2022-11-17T21:23:30.508Z,97303.31
2022-11-17T21:25:56.961Z,97302.34
2022-11-17T21:28:25.353Z,97289.00
2022-11-17T21:30:52.563Z,97272.16
2022-11-17T21:33:19.078Z,97293.63
2022-11-17T21:35:45.622Z,97301.75
2022-11-17T21:38:12.113Z,97322.72
2022-11-17T21:40:38.523Z,97317.09
2022-11-17T21:43:05.000Z,97311.44
2022-11-17T21:45:32.622Z,97289.75
2022-11-17T21:47:59.621Z,97293.63
2022-11-17T21:50:26.214Z,97291.06
2022-11-17T21:52:52.621Z,97278.81
2022-11-17T21:55:19.206Z,97289.09
2022-11-17T21:57:45.740Z,97288.50
2022-11-17T22:00:12.397Z,97265.72
2022-11-17T22:02:38.830Z,97291.06
2022-11-17T22:05:05.493Z,97290.88
2022-11-17T22:07:32.002Z,97291.66
2022-11-17T22:10:00.496Z,97265.31
2022-11-17T22:12:29.349Z,97241.66
2022-11-17T22:14:55.759Z,97260.97
2022-11-17T22:17:24.642Z,97285.09
2022-11-17T22:19:51.041Z,97314.63
2022-11-17T22:22:19.614Z,97330.63
2022-11-17T22:24:49.708Z,97335.97
2022-11-17T22:27:17.070Z,97341.31
2022-11-17T22:29:44.539Z,97358.31
2022-11-17T22:32:11.089Z,97358.94
2022-11-17T22:34:37.800Z,97359.31
2022-11-17T22:37:04.320Z,97356.34
2022-11-17T22:39:31.053Z,97329.34
2022-11-17T22:41:57.501Z,97345.47
2022-11-17T22:44:25.872Z,97351.38
2022-11-17T22:46:52.301Z,97346.47
2022-11-17T22:49:20.917Z,97343.69
2022-11-17T22:52:07.207Z,97314.22
2022-11-17T22:54:34.326Z,97330.44
2022-11-17T22:57:01.282Z,97341.09
2022-11-17T22:59:28.741Z,97346.47
2022-11-17T23:01:55.566Z,97338.44
2022-11-17T23:04:23.117Z,97335.47
2022-11-17T23:06:49.692Z,97360.72
2022-11-17T23:09:16.375Z,97366.66
2022-11-17T23:11:43.433Z,97371.59
2022-11-17T23:14:10.857Z,97356.06
2022-11-17T23:16:37.751Z,97331.19
2022-11-17T23:19:04.307Z,97355.38
2022-11-17T23:21:30.836Z,97362.97
2022-11-17T23:23:57.484Z,97347.03
2022-11-17T23:26:23.942Z,97346.47
2022-11-17T23:28:50.996Z,97334.38
2022-11-17T23:31:17.881Z,97342.00
2022-11-17T23:33:45.614Z,97343.59
2022-11-17T23:36:16.100Z,97335.28
2022-11-17T23:38:42.770Z,97311.63
2022-11-17T23:41:11.229Z,97279.72
2022-11-17T23:43:37.786Z,97302.53
2022-11-17T23:46:05.252Z,97292.72
2022-11-17T23:48:31.806Z,97286.88
2022-11-17T23:50:58.260Z,97274.81
2022-11-17T23:53:24.793Z,97253.91
2022-11-17T23:55:54.684Z,97265.13
2022-11-17T23:58:21.580Z,97251.28
